Besiktas Bosphorus — TCOG3 — position and weather

sailwx.info

Track history (hours):
 
Tides and Currents Weather Stations Pressure Air Temp Water Temp Dewpoint Dewpoint Depression Visibility Wind Speed Wind Dir Waves Ship Positions

Besiktas Bosphorus

Last reported at 2017-Aug-16 13:00 UTC. Time now 2017-Aug-16 12:57 UTC.
Position N 50°08' W 001°07'.

Length 274 m; draft 15.3 m.

Type: Tanker. MMSI: 271000817.

Date/timePositionNaut miles runAvg speedWind from/ knotsBaromVisibWave heightAir tempDewpointWater temp
2017-Aug-16 13:00N 50°08' W 001°07'713.6
2017-Aug-16 12:30N 50°06' W 001°18'713.3
2017-Aug-16 12:00N 50°05' W 001°28'612.8
2017-Aug-16 11:30N 50°03' W 001°37'612.3
2017-Aug-16 11:00N 50°01' W 001°47'611.7
2017-Aug-16 10:30N 50°00' W 001°56'611.2
2017-Aug-16 10:00N 49°59' W 002°04'610.8
2017-Aug-16 09:28N 49°57' W 002°13'610.5
2017-Aug-16 08:53N 49°56' W 002°22'710.3
2017-Aug-16 08:11N 49°54' W 002°33'310.3
2017-Aug-16 07:56N 49°53' W 002°36'610.4
2017-Aug-16 07:23N 49°52' W 002°45'410.6
2017-Aug-16 07:00N 49°51' W 002°51'710.9
2017-Aug-16 06:20N 49°47' W 003°01'411.1
2017-Aug-16 06:00N 49°46' W 003°06'611.3
2017-Aug-16 05:30N 49°43' W 003°14'611.4
2017-Aug-16 05:01N 49°40' W 003°21'611.5
2017-Aug-16 04:31N 49°36' W 003°29'711.7
2017-Aug-16 03:56N 49°33' W 003°37'511.6
2017-Aug-16 03:29N 49°30' W 003°44'611.7
2017-Aug-16 03:00N 49°27' W 003°52'711.9
2017-Aug-16 02:25N 49°23' W 004°01'511.9
2017-Aug-16 02:00N 49°21' W 004°07'612.1
2017-Aug-16 01:31N 49°18' W 004°15'812.3
2017-Aug-16 00:50N 49°14' W 004°26'512.6
2017-Aug-16 00:24N 49°11' W 004°33'2512.8
2017-Aug-15 22:25N 48°58' W 005°07'613.1
2017-Aug-15 21:59N 48°56' W 005°14'913.1
2017-Aug-15 21:17N 48°51' W 005°26'412.7
2017-Aug-15 20:58N 48°49' W 005°32'55412.7
2017-Aug-14 01:30N 40°09' W 009°57'613.0
2017-Aug-14 01:00N 40°02' W 009°57'612.7
2017-Aug-14 00:30N 39°56' W 009°57'613.0
2017-Aug-14 00:00N 39°50' W 009°57'613.0
2017-Aug-13 23:30N 39°43' W 009°57'713.0
2017-Aug-13 22:59N 39°36' W 009°57'613.2
2017-Aug-13 22:30N 39°30' W 009°57'713.0
2017-Aug-13 22:00N 39°23' W 009°57'613.0
2017-Aug-13 21:30N 39°17' W 009°57'612.7
2017-Aug-13 21:00N 39°11' W 009°57'612.9
2017-Aug-13 20:30N 39°04' W 009°57'612.9
2017-Aug-13 20:00N 38°58' W 009°57'612.6
2017-Aug-13 19:30N 38°51' W 009°57'713.3
2017-Aug-13 19:00N 38°45' W 009°57'713.2
2017-Aug-13 18:30N 38°38' W 009°55'713.0
2017-Aug-13 18:00N 38°32' W 009°53'612.9
2017-Aug-13 17:30N 38°26' W 009°52'713.1
2017-Aug-13 17:00N 38°19' W 009°50'713.2
2017-Aug-13 16:30N 38°13' W 009°48'713.1
2017-Aug-13 16:00N 38°07' W 009°46'713.3
2017-Aug-13 15:30N 38°00' W 009°44'713.1
2017-Aug-13 15:00N 37°53' W 009°42'713.3
2017-Aug-13 14:30N 37°47' W 009°41'713.1
2017-Aug-13 14:00N 37°41' W 009°39'713.3
2017-Aug-13 13:30N 37°34' W 009°37'713.3
2017-Aug-13 13:00N 37°28' W 009°35'713.2
2017-Aug-13 12:30N 37°21' W 009°33'713.4
2017-Aug-13 12:00N 37°15' W 009°31'713.3
2017-Aug-13 11:30N 37°08' W 009°29'713.1
2017-Aug-13 11:00N 37°02' W 009°27'2212.5
2017-Aug-13 09:17N 36°43' W 009°14'312.7
2017-Aug-13 09:00N 36°41' W 009°11'913.2
2017-Aug-13 08:20N 36°39' W 009°00'1512.9
2017-Aug-13 07:09N 36°35' W 008°42'413.6
2017-Aug-13 06:51N 36°34' W 008°37'15012.7
2017-Aug-12 19:01N 35°58' W 005°36'012.1
2017-Aug-12 19:00N 35°58' W 005°36'612.5
2017-Aug-12 18:30N 35°59' W 005°28'612.6
2017-Aug-12 18:00N 36°01' W 005°21'612.8
2017-Aug-12 17:30N 36°03' W 005°13'  
2017-Aug-10 07:18N 37°36' E 010°31'413.2
2017-Aug-10 07:00N 37°35' E 010°35'913.4
2017-Aug-10 06:21N 37°33' E 010°46'1013.3
2017-Aug-10 05:35N 37°30' E 010°59'213.0
2017-Aug-10 05:26N 37°30' E 011°01'2413.1
2017-Aug-10 03:36N 37°20' E 011°29'113.5
2017-Aug-10 03:30N 37°19' E 011°30'713.3
2017-Aug-10 02:59N 37°16' E 011°38'1313.1
2017-Aug-10 02:01N 37°09' E 011°51'013.0
2017-Aug-10 01:59N 37°09' E 011°52'713.5
2017-Aug-10 01:30N 37°06' E 011°59'613.2
2017-Aug-10 01:00N 37°03' E 012°06'713.1
2017-Aug-10 00:30N 37°01' E 012°14'713.7
2017-Aug-10 00:00N 36°59' E 012°22'713.7
2017-Aug-09 23:30N 36°57' E 012°31'713.7
2017-Aug-09 23:00N 36°55' E 012°39'713.9
2017-Aug-09 22:30N 36°53' E 012°47'713.9
2017-Aug-09 22:00N 36°51' E 012°55'713.8
2017-Aug-09 21:30N 36°49' E 013°03'713.7
2017-Aug-09 21:00N 36°47' E 013°11'713.7
2017-Aug-09 20:30N 36°45' E 013°20'713.6
2017-Aug-09 20:00N 36°43' E 013°28'713.6
2017-Aug-09 19:30N 36°41' E 013°36'713.7
2017-Aug-09 19:00N 36°39' E 013°44'713.6
2017-Aug-09 18:30N 36°37' E 013°52'713.5
2017-Aug-09 18:00N 36°35' E 014°00'713.4
2017-Aug-09 17:30N 36°33' E 014°08'713.3
2017-Aug-09 17:00N 36°31' E 014°16'713.1
2017-Aug-09 16:30N 36°29' E 014°24'613.0
2017-Aug-09 16:00N 36°27' E 014°32'612.8
2017-Aug-09 15:30N 36°26' E 014°39'612.7
2017-Aug-09 15:00N 36°25' E 014°47'612.5
2017-Aug-09 14:30N 36°25' E 014°55'612.3
2017-Aug-09 14:00N 36°25' E 015°02'612.9
2017-Aug-09 13:30N 36°24' E 015°10'713.2
2017-Aug-09 13:00N 36°23' E 015°19'713.3
2017-Aug-09 12:30N 36°23' E 015°27'713.6
2017-Aug-09 12:00N 36°23' E 015°35'713.7
2017-Aug-09 11:30N 36°22' E 015°44'713.7
2017-Aug-09 10:58N 36°22' E 015°53'713.7
2017-Aug-09 10:28N 36°21' E 016°01'613.7
2017-Aug-09 10:00N 36°21' E 016°09'813.4
2017-Aug-09 09:23N 36°21' E 016°20'5013.3
2017-Aug-09 05:35N 36°18' E 017°22'3913.2
2017-Aug-09 02:39N 36°16' E 018°10'213.1
2017-Aug-09 02:29N 36°16' E 018°13'613.1
2017-Aug-09 02:00N 36°15' E 018°21'713.2
2017-Aug-09 01:30N 36°14' E 018°29'7313.4
2017-Aug-08 20:02N 36°10' E 019°59'113.2
2017-Aug-08 19:59N 36°10' E 020°00'613.1
2017-Aug-08 19:30N 36°10' E 020°08'913.3
2017-Aug-08 18:49N 36°09' E 020°20'713.5
2017-Aug-08 18:19N 36°09' E 020°28'413.4
2017-Aug-08 18:00N 36°09' E 020°33'713.3
2017-Aug-08 17:30N 36°08' E 020°41'713.3
2017-Aug-08 17:00N 36°08' E 020°49'813.5
2017-Aug-08 16:24N 36°07' E 020°60'469 9.3
2017-Aug-06 13:51N 40°56' E 028°52'2 3.9
2017-Aug-06 13:23N 40°57' E 028°54'2 4.0
2017-Aug-06 12:59N 40°57' E 028°56'  
Track history (hours):
 
Tides and Currents Weather Stations Pressure Air Temp Water Temp Dewpoint Dewpoint Depression Visibility Wind Speed Wind Dir Waves Ship Positions

Besiktas Bosphorus

Last reported at 2017-Aug-16 13:00 UTC. Time now 2017-Aug-16 12:57 UTC.
Position N 50°08' W 001°07'.

Length 274 m; draft 15.3 m.

Type: Tanker. MMSI: 271000817.

Date/timePositionNaut miles runAvg speedWind from/ knotsBaromVisibWave heightAir tempDewpointWater temp
2017-Aug-16 13:00N 50°08' W 001°07'713.6
2017-Aug-16 12:30N 50°06' W 001°18'713.3
2017-Aug-16 12:00N 50°05' W 001°28'612.8
2017-Aug-16 11:30N 50°03' W 001°37'612.3
2017-Aug-16 11:00N 50°01' W 001°47'611.7
2017-Aug-16 10:30N 50°00' W 001°56'611.2
2017-Aug-16 10:00N 49°59' W 002°04'610.8
2017-Aug-16 09:28N 49°57' W 002°13'610.5
2017-Aug-16 08:53N 49°56' W 002°22'710.3
2017-Aug-16 08:11N 49°54' W 002°33'310.3
2017-Aug-16 07:56N 49°53' W 002°36'610.4
2017-Aug-16 07:23N 49°52' W 002°45'410.6
2017-Aug-16 07:00N 49°51' W 002°51'710.9
2017-Aug-16 06:20N 49°47' W 003°01'411.1
2017-Aug-16 06:00N 49°46' W 003°06'611.3
2017-Aug-16 05:30N 49°43' W 003°14'611.4
2017-Aug-16 05:01N 49°40' W 003°21'611.5
2017-Aug-16 04:31N 49°36' W 003°29'711.7
2017-Aug-16 03:56N 49°33' W 003°37'511.6
2017-Aug-16 03:29N 49°30' W 003°44'611.7
2017-Aug-16 03:00N 49°27' W 003°52'711.9
2017-Aug-16 02:25N 49°23' W 004°01'511.9
2017-Aug-16 02:00N 49°21' W 004°07'612.1
2017-Aug-16 01:31N 49°18' W 004°15'812.3
2017-Aug-16 00:50N 49°14' W 004°26'512.6
2017-Aug-16 00:24N 49°11' W 004°33'2512.8
2017-Aug-15 22:25N 48°58' W 005°07'613.1
2017-Aug-15 21:59N 48°56' W 005°14'913.1
2017-Aug-15 21:17N 48°51' W 005°26'412.7
2017-Aug-15 20:58N 48°49' W 005°32'55412.7
2017-Aug-14 01:30N 40°09' W 009°57'613.0
2017-Aug-14 01:00N 40°02' W 009°57'612.7
2017-Aug-14 00:30N 39°56' W 009°57'613.0
2017-Aug-14 00:00N 39°50' W 009°57'613.0
2017-Aug-13 23:30N 39°43' W 009°57'713.0
2017-Aug-13 22:59N 39°36' W 009°57'613.2
2017-Aug-13 22:30N 39°30' W 009°57'713.0
2017-Aug-13 22:00N 39°23' W 009°57'613.0
2017-Aug-13 21:30N 39°17' W 009°57'612.7
2017-Aug-13 21:00N 39°11' W 009°57'612.9
2017-Aug-13 20:30N 39°04' W 009°57'612.9
2017-Aug-13 20:00N 38°58' W 009°57'612.6
2017-Aug-13 19:30N 38°51' W 009°57'713.3
2017-Aug-13 19:00N 38°45' W 009°57'713.2
2017-Aug-13 18:30N 38°38' W 009°55'713.0
2017-Aug-13 18:00N 38°32' W 009°53'612.9
2017-Aug-13 17:30N 38°26' W 009°52'713.1
2017-Aug-13 17:00N 38°19' W 009°50'713.2
2017-Aug-13 16:30N 38°13' W 009°48'713.1
2017-Aug-13 16:00N 38°07' W 009°46'713.3
2017-Aug-13 15:30N 38°00' W 009°44'713.1
2017-Aug-13 15:00N 37°53' W 009°42'713.3
2017-Aug-13 14:30N 37°47' W 009°41'713.1
2017-Aug-13 14:00N 37°41' W 009°39'713.3
2017-Aug-13 13:30N 37°34' W 009°37'713.3
2017-Aug-13 13:00N 37°28' W 009°35'713.2
2017-Aug-13 12:30N 37°21' W 009°33'713.4
2017-Aug-13 12:00N 37°15' W 009°31'713.3
2017-Aug-13 11:30N 37°08' W 009°29'713.1
2017-Aug-13 11:00N 37°02' W 009°27'2212.5
2017-Aug-13 09:17N 36°43' W 009°14'312.7
2017-Aug-13 09:00N 36°41' W 009°11'913.2
2017-Aug-13 08:20N 36°39' W 009°00'1512.9
2017-Aug-13 07:09N 36°35' W 008°42'413.6
2017-Aug-13 06:51N 36°34' W 008°37'15012.7
2017-Aug-12 19:01N 35°58' W 005°36'012.1
2017-Aug-12 19:00N 35°58' W 005°36'612.5
2017-Aug-12 18:30N 35°59' W 005°28'612.6
2017-Aug-12 18:00N 36°01' W 005°21'612.8
2017-Aug-12 17:30N 36°03' W 005°13'  
2017-Aug-10 07:18N 37°36' E 010°31'413.2
2017-Aug-10 07:00N 37°35' E 010°35'913.4
2017-Aug-10 06:21N 37°33' E 010°46'1013.3
2017-Aug-10 05:35N 37°30' E 010°59'213.0
2017-Aug-10 05:26N 37°30' E 011°01'2413.1
2017-Aug-10 03:36N 37°20' E 011°29'113.5
2017-Aug-10 03:30N 37°19' E 011°30'713.3
2017-Aug-10 02:59N 37°16' E 011°38'1313.1
2017-Aug-10 02:01N 37°09' E 011°51'013.0
2017-Aug-10 01:59N 37°09' E 011°52'713.5
2017-Aug-10 01:30N 37°06' E 011°59'613.2
2017-Aug-10 01:00N 37°03' E 012°06'713.1
2017-Aug-10 00:30N 37°01' E 012°14'713.7
2017-Aug-10 00:00N 36°59' E 012°22'713.7
2017-Aug-09 23:30N 36°57' E 012°31'713.7
2017-Aug-09 23:00N 36°55' E 012°39'713.9
2017-Aug-09 22:30N 36°53' E 012°47'713.9
2017-Aug-09 22:00N 36°51' E 012°55'713.8
2017-Aug-09 21:30N 36°49' E 013°03'713.7
2017-Aug-09 21:00N 36°47' E 013°11'713.7
2017-Aug-09 20:30N 36°45' E 013°20'713.6
2017-Aug-09 20:00N 36°43' E 013°28'713.6
2017-Aug-09 19:30N 36°41' E 013°36'713.7
2017-Aug-09 19:00N 36°39' E 013°44'713.6
2017-Aug-09 18:30N 36°37' E 013°52'713.5
2017-Aug-09 18:00N 36°35' E 014°00'713.4
2017-Aug-09 17:30N 36°33' E 014°08'713.3
2017-Aug-09 17:00N 36°31' E 014°16'713.1
2017-Aug-09 16:30N 36°29' E 014°24'613.0
2017-Aug-09 16:00N 36°27' E 014°32'612.8
2017-Aug-09 15:30N 36°26' E 014°39'612.7
2017-Aug-09 15:00N 36°25' E 014°47'612.5
2017-Aug-09 14:30N 36°25' E 014°55'612.3
2017-Aug-09 14:00N 36°25' E 015°02'612.9
2017-Aug-09 13:30N 36°24' E 015°10'713.2
2017-Aug-09 13:00N 36°23' E 015°19'713.3
2017-Aug-09 12:30N 36°23' E 015°27'713.6
2017-Aug-09 12:00N 36°23' E 015°35'713.7
2017-Aug-09 11:30N 36°22' E 015°44'713.7
2017-Aug-09 10:58N 36°22' E 015°53'713.7
2017-Aug-09 10:28N 36°21' E 016°01'613.7
2017-Aug-09 10:00N 36°21' E 016°09'813.4
2017-Aug-09 09:23N 36°21' E 016°20'5013.3
2017-Aug-09 05:35N 36°18' E 017°22'3913.2
2017-Aug-09 02:39N 36°16' E 018°10'213.1
2017-Aug-09 02:29N 36°16' E 018°13'613.1
2017-Aug-09 02:00N 36°15' E 018°21'713.2
2017-Aug-09 01:30N 36°14' E 018°29'7313.4
2017-Aug-08 20:02N 36°10' E 019°59'113.2
2017-Aug-08 19:59N 36°10' E 020°00'613.1
2017-Aug-08 19:30N 36°10' E 020°08'913.3
2017-Aug-08 18:49N 36°09' E 020°20'713.5
2017-Aug-08 18:19N 36°09' E 020°28'413.4
2017-Aug-08 18:00N 36°09' E 020°33'713.3
2017-Aug-08 17:30N 36°08' E 020°41'713.3
2017-Aug-08 17:00N 36°08' E 020°49'813.5
2017-Aug-08 16:24N 36°07' E 020°60'469 9.3
2017-Aug-06 13:51N 40°56' E 028°52'2 3.9
2017-Aug-06 13:23N 40°57' E 028°54'2 4.0
2017-Aug-06 12:59N 40°57' E 028°56'  

Dump ship's entire track history